Time;durP1;ratioP1;P1;durP2;ratioP2;P2;SDS_P1;SDS_P2;PMS_P1;PMS_P2;Temp;Humidity;BMP_temperature;BMP_pressure;BME280_temperature;BME280_humidity;BME280_pressure;Samples;Min_cycle;Max_cycle;Signal;HPM_P1;HPM_P2
2022/09/16 00:00:23;;;;;;;7.72;1.35;;;15.10;99.90;;;;;;5052383;28;20028;-78
2022/09/16 00:02:51;;;;;;;11.10;1.60;;;15.00;99.90;;;;;;5052566;28;20025;-78
2022/09/16 00:05:17;;;;;;;8.32;1.27;;;15.10;99.90;;;;;;5038467;28;20071;-78
2022/09/16 00:07:44;;;;;;;8.68;1.52;;;15.10;99.90;;;;;;5052631;28;20025;-78
2022/09/16 00:10:10;;;;;;;14.15;1.50;;;15.10;99.90;;;;;;5050899;28;20073;-78
2022/09/16 00:12:36;;;;;;;6.60;1.15;;;15.10;99.90;;;;;;5045906;28;20033;-77
2022/09/16 00:15:03;;;;;;;9.48;1.20;;;15.10;99.90;;;;;;5044714;28;20041;-78
2022/09/16 00:17:29;;;;;;;9.23;1.10;;;15.10;99.90;;;;;;5052224;28;20047;-78
2022/09/16 00:19:56;;;;;;;6.70;1.00;;;15.10;99.90;;;;;;5044039;28;20036;-77
2022/09/16 00:22:22;;;;;;;12.77;1.80;;;15.10;99.90;;;;;;5043563;28;20120;-78
2022/09/16 00:24:48;;;;;;;6.57;1.10;;;15.10;99.90;;;;;;5050510;28;20479;-77
2022/09/16 00:27:14;;;;;;;9.00;1.35;;;15.10;99.90;;;;;;5051813;28;20082;-78
2022/09/16 00:29:39;;;;;;;4.78;0.80;;;15.10;99.90;;;;;;5051937;28;20104;-77
2022/09/16 00:32:05;;;;;;;8.13;1.10;;;15.10;99.90;;;;;;5051869;28;20241;-78
2022/09/16 00:34:31;;;;;;;4.95;1.02;;;15.10;99.90;;;;;;5051809;28;20389;-77
2022/09/16 00:36:56;;;;;;;8.52;1.25;;;15.10;99.90;;;;;;5044934;28;20055;-77
2022/09/16 00:39:22;;;;;;;8.10;1.30;;;15.10;99.90;;;;;;5044494;28;20338;-77
2022/09/16 00:41:48;;;;;;;5.82;0.73;;;15.10;99.90;;;;;;5051634;28;20021;-77
2022/09/16 00:44:51;;;;;;;7.22;0.93;;;15.10;99.90;;;;;;5051941;28;20025;-77
2022/09/16 00:47:29;;;;;;;6.60;1.00;;;15.00;99.90;;;;;;5039572;28;20021;-77
2022/09/16 00:50:00;;;;;;;7.13;1.10;;;14.90;99.90;;;;;;5051313;28;20496;-77
2022/09/16 00:52:28;;;;;;;5.97;0.90;;;14.90;99.90;;;;;;5051165;28;20017;-76
2022/09/16 00:54:53;;;;;;;5.55;1.00;;;14.80;99.90;;;;;;5037686;28;20094;-77
2022/09/16 00:57:19;;;;;;;11.57;1.08;;;14.80;99.90;;;;;;5051271;28;20095;-77
2022/09/16 00:59:50;;;;;;;7.45;0.80;;;14.80;99.90;;;;;;5050129;28;20381;-77
2022/09/16 01:02:18;;;;;;;5.18;1.00;;;14.70;99.90;;;;;;5051150;28;20362;-77
2022/09/16 01:04:52;;;;;;;7.03;1.00;;;14.70;99.90;;;;;;5051399;28;20556;-77
2022/09/16 01:07:39;;;;;;;4.65;0.85;;;14.80;99.90;;;;;;5051216;28;20028;-77
2022/09/16 01:10:05;;;;;;;7.07;0.90;;;14.70;99.90;;;;;;5049723;28;20025;-77
2022/09/16 01:12:33;;;;;;;6.50;0.80;;;14.70;99.90;;;;;;5039889;28;20017;-76
2022/09/16 01:15:00;;;;;;;6.03;0.95;;;14.70;99.90;;;;;;5032508;28;20488;-77
2022/09/16 01:17:38;;;;;;;6.45;0.90;;;14.80;99.90;;;;;;5031242;28;20541;-77
2022/09/16 01:20:49;;;;;;;7.22;1.27;;;14.80;99.90;;;;;;5031607;28;20034;-76
2022/09/16 01:23:45;;;;;;;8.18;1.17;;;14.80;99.90;;;;;;5022354;28;20041;-76
2022/09/16 01:26:29;;;;;;;8.70;1.20;;;14.80;99.90;;;;;;5031457;28;20021;-75
2022/09/16 01:29:15;;;;;;;8.82;1.13;;;14.60;99.90;;;;;;5041295;28;20032;-75
2022/09/16 01:31:52;;;;;;;6.05;1.10;;;14.40;99.90;;;;;;5031613;28;20493;-75
2022/09/16 01:34:36;;;;;;;4.93;1.25;;;14.20;99.90;;;;;;5031044;28;20025;-75
2022/09/16 01:37:37;;;;;;;5.80;0.82;;;14.20;99.90;;;;;;5030842;28;20029;-75
2022/09/16 01:40:19;;;;;;;6.47;1.00;;;14.10;99.90;;;;;;5030940;28;20409;-76
2022/09/16 01:43:26;;;;;;;3.33;0.80;;;14.00;99.90;;;;;;5030873;28;20026;-75
2022/09/16 01:45:56;;;;;;;4.45;0.85;;;14.00;99.90;;;;;;5027947;28;20053;-76
2022/09/16 01:48:27;;;;;;;6.15;0.90;;;14.00;99.90;;;;;;5027871;28;20036;-75
2022/09/16 01:51:18;;;;;;;6.82;1.08;;;14.00;99.90;;;;;;5027965;28;20565;-76
2022/09/16 01:54:05;;;;;;;3.60;0.85;;;14.00;99.90;;;;;;5027932;28;20033;-76
2022/09/16 01:56:38;;;;;;;5.65;0.90;;;13.90;99.90;;;;;;5027911;28;20460;-76
2022/09/16 01:59:12;;;;;;;7.43;1.27;;;13.90;99.90;;;;;;5028085;28;20022;-76
2022/09/16 02:01:51;;;;;;;11.80;1.20;;;13.90;99.90;;;;;;5028077;28;20104;-76
2022/09/16 02:04:30;;;;;;;7.22;1.10;;;13.90;99.90;;;;;;5027002;28;20036;-76
2022/09/16 02:06:58;;;;;;;6.97;0.95;;;13.90;99.90;;;;;;5027641;28;20099;-75
2022/09/16 02:09:30;;;;;;;11.60;1.17;;;13.90;99.90;;;;;;5027846;28;20026;-76
2022/09/16 02:12:00;;;;;;;6.57;1.08;;;13.80;99.90;;;;;;5027998;28;20032;-76
2022/09/16 02:14:30;;;;;;;7.20;1.17;;;13.80;99.90;;;;;;5027735;28;20133;-75
2022/09/16 02:17:06;;;;;;;7.13;1.08;;;13.90;99.90;;;;;;5027784;28;20047;-76
2022/09/16 02:19:38;;;;;;;7.38;0.95;;;13.80;99.90;;;;;;5027471;28;20048;-76
2022/09/16 02:22:08;;;;;;;6.15;0.90;;;13.80;99.90;;;;;;5028154;28;20111;-76
2022/09/16 02:24:35;;;;;;;6.95;0.95;;;13.80;99.90;;;;;;5029076;28;20117;-76
2022/09/16 02:27:04;;;;;;;8.63;1.08;;;13.90;99.90;;;;;;5030589;28;20029;-75
2022/09/16 02:29:40;;;;;;;3.88;0.98;;;13.90;99.90;;;;;;5030317;28;20410;-76
2022/09/16 02:32:08;;;;;;;6.13;1.00;;;13.90;99.90;;;;;;5030151;28;20018;-75
2022/09/16 02:34:39;;;;;;;7.90;1.00;;;13.80;99.90;;;;;;5028673;28;20112;-75
2022/09/16 02:37:10;;;;;;;6.18;1.02;;;13.80;99.90;;;;;;5030362;28;20040;-75
2022/09/16 02:39:39;;;;;;;5.15;0.90;;;13.80;99.90;;;;;;5029864;28;20029;-75
2022/09/16 02:42:06;;;;;;;7.68;1.00;;;13.70;99.90;;;;;;5030121;28;20105;-75
2022/09/16 02:44:33;;;;;;;5.70;0.80;;;13.60;99.90;;;;;;5029753;28;20034;-75
2022/09/16 02:47:25;;;;;;;3.53;0.70;;;13.70;99.90;;;;;;5030059;28;20079;-76
2022/09/16 02:50:06;;;;;;;5.60;0.80;;;13.70;99.90;;;;;;5030049;28;20355;-75
2022/09/16 02:52:37;;;;;;;2.70;0.60;;;13.70;99.90;;;;;;5029956;28;20387;-76
2022/09/16 02:55:19;;;;;;;3.65;0.70;;;13.60;99.90;;;;;;5029760;28;20026;-75
2022/09/16 02:57:45;;;;;;;6.82;1.20;;;13.60;99.90;;;;;;5029920;28;20036;-76
2022/09/16 03:00:11;;;;;;;2.55;0.80;;;13.50;99.90;;;;;;5030045;28;20018;-76
2022/09/16 03:02:37;;;;;;;7.15;1.20;;;13.50;99.90;;;;;;5030332;28;20040;-76
2022/09/16 03:05:03;;;;;;;7.93;0.70;;;13.50;99.90;;;;;;5029628;28;20021;-75
2022/09/16 03:07:29;;;;;;;3.00;0.82;;;13.50;99.90;;;;;;5029972;28;20104;-75
2022/09/16 03:09:55;;;;;;;4.30;0.70;;;13.50;99.90;;;;;;5029639;28;20097;-75
2022/09/16 03:12:42;;;;;;;8.65;0.90;;;13.50;99.90;;;;;;5029829;28;20056;-76
2022/09/16 03:15:35;;;;;;;3.50;0.85;;;13.50;99.90;;;;;;5031367;28;20416;-75
2022/09/16 03:18:46;;;;;;;4.80;0.80;;;13.50;99.90;;;;;;5033471;28;20041;-76
2022/09/16 03:21:51;;;;;;;6.05;0.90;;;13.50;99.90;;;;;;5023949;28;20572;-75
2022/09/16 03:24:45;;;;;;;5.57;0.93;;;13.50;99.90;;;;;;5033176;28;20036;-76
2022/09/16 03:27:17;;;;;;;5.32;0.90;;;13.60;99.90;;;;;;5033366;28;20083;-76
2022/09/16 03:29:49;;;;;;;5.07;0.70;;;13.60;99.90;;;;;;5033106;28;20392;-76
2022/09/16 03:32:20;;;;;;;7.28;0.93;;;13.60;99.90;;;;;;5032989;28;20052;-76
2022/09/16 03:35:00;;;;;;;5.38;0.70;;;13.60;99.90;;;;;;5032959;28;20032;-76
2022/09/16 03:37:30;;;;;;;6.32;0.90;;;13.60;99.90;;;;;;5033088;28;20500;-75
2022/09/16 03:39:58;;;;;;;6.03;1.02;;;13.60;99.90;;;;;;5033002;28;20076;-76
2022/09/16 03:42:24;;;;;;;8.40;1.20;;;13.60;99.90;;;;;;5032935;28;20024;-76
2022/09/16 03:44:50;;;;;;;3.35;0.98;;;13.60;99.90;;;;;;5033085;28;20072;-75
2022/09/16 03:47:16;;;;;;;8.27;1.27;;;13.50;99.90;;;;;;5031763;28;20021;-75
2022/09/16 03:49:42;;;;;;;3.78;0.80;;;13.50;99.90;;;;;;5032564;28;20073;-76
2022/09/16 03:52:08;;;;;;;8.18;1.00;;;13.40;99.90;;;;;;5033301;28;20478;-76
2022/09/16 03:54:35;;;;;;;6.65;0.90;;;13.40;99.90;;;;;;5032877;28;20441;-76
2022/09/16 03:57:01;;;;;;;2.45;0.60;;;13.40;99.90;;;;;;5032720;28;20025;-76
2022/09/16 03:59:27;;;;;;;5.38;0.95;;;13.40;99.90;;;;;;5032551;28;20034;-76
2022/09/16 04:01:54;;;;;;;6.07;0.80;;;13.40;99.90;;;;;;5031220;28;20018;-75
2022/09/16 04:04:19;;;;;;;6.15;0.77;;;13.40;99.90;;;;;;5032448;28;20113;-76
2022/09/16 04:06:45;;;;;;;4.55;0.70;;;13.40;99.90;;;;;;5032383;28;20469;-76
2022/09/16 04:09:11;;;;;;;9.73;1.38;;;13.40;99.90;;;;;;5032385;28;20026;-76
2022/09/16 04:11:38;;;;;;;6.22;1.05;;;13.50;99.90;;;;;;5032354;28;20025;-75
2022/09/16 04:14:04;;;;;;;4.60;0.80;;;13.50;99.90;;;;;;5032210;28;20056;-76
2022/09/16 04:16:30;;;;;;;8.75;0.93;;;13.60;99.90;;;;;;5032336;28;20028;-76
2022/09/16 04:18:56;;;;;;;3.28;1.00;;;13.60;99.90;;;;;;5032068;28;20100;-76
2022/09/16 04:21:22;;;;;;;3.65;0.80;;;13.60;99.90;;;;;;5032789;28;20029;-76
2022/09/16 04:23:49;;;;;;;7.75;1.15;;;13.60;99.90;;;;;;5032506;28;20044;-75
2022/09/16 04:26:15;;;;;;;4.78;1.15;;;13.50;99.90;;;;;;5031124;28;20032;-76
2022/09/16 04:28:41;;;;;;;2.15;0.90;;;13.60;99.90;;;;;;5032102;28;20052;-76
2022/09/16 04:31:11;;;;;;;2.35;0.90;;;13.60;99.90;;;;;;5032149;28;20477;-75
2022/09/16 04:33:37;;;;;;;6.00;1.00;;;13.50;99.90;;;;;;5032045;28;20382;-76
2022/09/16 04:36:07;;;;;;;4.35;0.95;;;13.50;99.90;;;;;;5032260;28;20072;-75
2022/09/16 04:38:33;;;;;;;4.82;1.10;;;13.50;99.90;;;;;;5032052;28;20041;-75
2022/09/16 04:41:05;;;;;;;5.68;0.93;;;13.50;99.90;;;;;;5031651;28;20017;-75
2022/09/16 04:43:30;;;;;;;9.23;1.20;;;13.50;99.90;;;;;;5031781;28;20446;-75
2022/09/16 04:45:57;;;;;;;5.07;1.05;;;13.50;99.90;;;;;;5030454;28;20405;-76
2022/09/16 04:48:24;;;;;;;9.50;1.15;;;13.50;99.90;;;;;;5031647;28;20026;-76
2022/09/16 04:50:50;;;;;;;6.18;1.00;;;13.50;99.90;;;;;;5048200;28;20581;-75
2022/09/16 04:53:16;;;;;;;5.60;1.02;;;13.40;99.90;;;;;;5044835;28;20112;-75
2022/09/16 04:55:42;;;;;;;7.72;1.20;;;13.40;99.90;;;;;;5028099;28;20100;-75
2022/09/16 04:58:08;;;;;;;6.05;1.13;;;13.40;99.90;;;;;;5041387;28;20017;-75
2022/09/16 05:00:34;;;;;;;5.35;1.17;;;13.40;99.90;;;;;;5032407;28;20029;-75
2022/09/16 05:02:59;;;;;;;4.55;1.23;;;13.30;99.90;;;;;;5043072;28;20109;-75
2022/09/16 05:05:25;;;;;;;7.97;1.00;;;13.30;99.90;;;;;;5039054;28;20021;-75
2022/09/16 05:07:51;;;;;;;7.55;1.15;;;13.30;99.90;;;;;;5043689;28;20357;-75
2022/09/16 05:10:17;;;;;;;9.32;1.23;;;13.30;99.90;;;;;;5049185;28;20013;-74
2022/09/16 05:12:42;;;;;;;9.98;1.30;;;13.30;99.90;;;;;;5047443;28;20128;-74
2022/09/16 05:15:08;;;;;;;9.02;1.10;;;13.30;99.90;;;;;;5047042;28;20029;-75
2022/09/16 05:17:34;;;;;;;11.10;1.00;;;13.30;99.90;;;;;;5046743;28;20104;-76
2022/09/16 05:20:00;;;;;;;11.27;1.20;;;13.30;99.90;;;;;;5044104;28;20117;-74
2022/09/16 05:22:25;;;;;;;8.32;1.33;;;13.30;99.90;;;;;;5045623;28;20496;-75
2022/09/16 05:24:51;;;;;;;13.35;1.40;;;13.30;99.90;;;;;;5035388;28;20537;-74
2022/09/16 05:27:17;;;;;;;6.57;1.00;;;13.30;99.90;;;;;;5035059;28;20033;-74
2022/09/16 05:29:42;;;;;;;6.85;0.93;;;13.20;99.90;;;;;;5034316;28;20048;-73
2022/09/16 05:32:08;;;;;;;7.78;1.17;;;13.30;99.90;;;;;;5043367;28;20112;-75
2022/09/16 05:34:35;;;;;;;4.80;0.95;;;13.20;99.90;;;;;;5046072;28;20440;-74
2022/09/16 05:37:01;;;;;;;6.53;0.90;;;13.30;99.90;;;;;;5047638;28;20024;-74
2022/09/16 05:39:27;;;;;;;12.30;1.85;;;13.30;99.90;;;;;;5041071;28;20377;-76
2022/09/16 05:41:55;;;;;;;7.47;1.30;;;13.30;99.90;;;;;;5030915;28;20479;-75
2022/09/16 05:44:21;;;;;;;11.27;1.23;;;13.30;99.90;;;;;;5030735;28;20025;-74
2022/09/16 05:46:47;;;;;;;7.72;1.02;;;13.40;99.90;;;;;;5040222;28;20036;-75
2022/09/16 05:49:14;;;;;;;4.72;0.88;;;13.40;99.90;;;;;;5043123;28;20025;-76
2022/09/16 05:51:42;;;;;;;9.85;1.70;;;13.30;99.90;;;;;;5026971;28;20049;-74
2022/09/16 05:54:08;;;;;;;6.55;1.02;;;13.30;99.90;;;;;;5030412;28;20037;-75
2022/09/16 05:56:34;;;;;;;9.43;1.50;;;13.30;99.90;;;;;;5031255;28;20017;-75
2022/09/16 05:59:00;;;;;;;9.80;1.20;;;13.40;99.90;;;;;;5037515;28;20025;-76
2022/09/16 06:01:34;;;;;;;8.70;1.33;;;13.40;99.90;;;;;;5034156;28;20022;-74
2022/09/16 06:04:02;;;;;;;8.35;1.45;;;13.30;99.90;;;;;;5028022;28;20425;-73
2022/09/16 06:06:29;;;;;;;6.60;1.27;;;13.30;99.90;;;;;;5029590;28;20025;-73
2022/09/16 06:08:57;;;;;;;13.80;1.73;;;13.30;99.90;;;;;;5030109;28;20060;-76
2022/09/16 06:11:24;;;;;;;16.15;1.55;;;13.20;99.90;;;;;;5029866;28;20363;-76
2022/09/16 06:13:56;;;;;;;11.40;1.63;;;13.20;99.90;;;;;;5030134;28;20037;-75
2022/09/16 06:16:27;;;;;;;10.32;1.27;;;13.10;99.90;;;;;;5029886;28;20087;-75
2022/09/16 06:18:54;;;;;;;8.75;1.10;;;13.00;99.90;;;;;;5029837;28;20125;-74
2022/09/16 06:21:20;;;;;;;10.15;1.48;;;12.90;99.90;;;;;;5030658;28;20048;-74
2022/09/16 06:23:46;;;;;;;9.43;1.15;;;12.90;99.90;;;;;;5030296;28;20388;-75
2022/09/16 06:26:14;;;;;;;9.93;1.52;;;12.80;99.90;;;;;;5030238;28;20026;-75
2022/09/16 06:28:40;;;;;;;10.55;1.23;;;12.80;99.90;;;;;;5030150;28;20041;-75
2022/09/16 06:31:08;;;;;;;12.18;1.30;;;12.80;99.90;;;;;;5030021;28;20116;-74
2022/09/16 06:33:34;;;;;;;8.63;1.17;;;12.80;99.90;;;;;;5030876;28;20104;-74
2022/09/16 06:36:13;;;;;;;7.57;1.33;;;12.90;99.90;;;;;;5046743;28;20082;-75
2022/09/16 06:38:39;;;;;;;14.30;1.40;;;12.90;99.90;;;;;;5037736;28;20041;-73
2022/09/16 06:41:07;;;;;;;10.05;1.30;;;12.90;99.90;;;;;;5030110;28;20026;-74
2022/09/16 06:43:34;;;;;;;9.25;1.20;;;12.90;99.90;;;;;;5030053;28;20660;-74
2022/09/16 06:46:01;;;;;;;9.20;1.30;;;13.00;99.90;;;;;;5029963;28;20025;-74
2022/09/16 06:48:28;;;;;;;5.22;1.00;;;13.00;99.90;;;;;;5028732;28;20478;-75
2022/09/16 06:50:58;;;;;;;9.60;1.23;;;13.00;99.90;;;;;;5032769;28;20049;-75
2022/09/16 06:53:25;;;;;;;6.55;1.00;;;13.10;99.90;;;;;;5033840;28;20021;-75
2022/09/16 06:55:51;;;;;;;8.93;1.15;;;13.10;99.90;;;;;;5024506;28;20067;-75
2022/09/16 06:58:16;;;;;;;6.28;1.02;;;13.20;99.90;;;;;;5032336;28;20481;-75
2022/09/16 07:00:42;;;;;;;14.02;1.25;;;13.20;99.90;;;;;;5033653;28;20079;-75
2022/09/16 07:03:07;;;;;;;7.07;1.10;;;13.20;99.90;;;;;;5033681;28;20504;-75
2022/09/16 07:05:33;;;;;;;12.25;1.90;;;13.30;99.90;;;;;;5033693;28;20028;-75
2022/09/16 07:07:59;;;;;;;2.92;0.82;;;13.40;99.90;;;;;;5029718;28;20152;-75
2022/09/16 07:10:24;;;;;;;5.00;1.00;;;13.50;99.90;;;;;;5030869;28;20021;-76
2022/09/16 07:12:50;;;;;;;8.82;1.05;;;13.70;99.90;;;;;;5040512;28;20031;-75
2022/09/16 07:15:16;;;;;;;6.90;1.30;;;13.90;99.90;;;;;;5037301;28;20512;-74
2022/09/16 07:17:42;;;;;;;8.52;1.30;;;14.10;99.90;;;;;;5037741;28;20055;-74
2022/09/16 07:20:08;;;;;;;7.95;1.15;;;14.10;99.90;;;;;;5049220;28;20035;-75
2022/09/16 07:22:34;;;;;;;10.73;1.35;;;14.20;99.90;;;;;;5036861;28;20425;-74
2022/09/16 07:24:59;;;;;;;4.80;1.10;;;14.10;99.90;;;;;;5033207;28;20024;-75
2022/09/16 07:27:25;;;;;;;10.70;1.17;;;13.90;99.90;;;;;;5031968;28;20079;-74
2022/09/16 07:29:52;;;;;;;9.63;1.13;;;13.70;99.90;;;;;;5033521;28;20584;-75
2022/09/16 07:32:18;;;;;;;5.63;1.13;;;13.60;99.90;;;;;;5033537;28;20306;-75
2022/09/16 07:34:44;;;;;;;5.97;0.90;;;13.50;99.90;;;;;;5033078;28;20333;-74
2022/09/16 07:37:09;;;;;;;5.75;1.00;;;13.40;99.90;;;;;;5033031;28;20036;-75
2022/09/16 07:39:35;;;;;;;4.90;0.95;;;13.40;99.90;;;;;;5032688;28;20096;-75
2022/09/16 07:42:02;;;;;;;7.90;1.23;;;13.40;99.90;;;;;;5031719;28;20470;-75
2022/09/16 07:44:28;;;;;;;4.95;1.20;;;13.40;99.90;;;;;;5032953;28;20013;-74
2022/09/16 07:46:54;;;;;;;8.18;1.30;;;13.50;99.90;;;;;;5032878;28;20056;-75
2022/09/16 07:49:19;;;;;;;5.85;1.15;;;13.50;99.90;;;;;;5032793;28;20488;-75
2022/09/16 07:51:45;;;;;;;13.15;1.50;;;13.60;99.90;;;;;;5032566;28;20413;-74
2022/09/16 07:54:15;;;;;;;7.85;1.00;;;13.70;99.90;;;;;;5023920;28;20014;-74
2022/09/16 07:56:41;;;;;;;6.95;1.10;;;13.90;99.90;;;;;;5032649;28;20079;-74
2022/09/16 07:59:12;;;;;;;10.85;1.30;;;14.00;99.90;;;;;;5042189;28;20029;-75
2022/09/16 08:01:38;;;;;;;7.32;1.35;;;14.10;99.90;;;;;;5040784;28;20602;-75
2022/09/16 08:04:03;;;;;;;10.60;1.38;;;14.20;99.90;;;;;;5032523;28;20041;-75
2022/09/16 08:06:31;;;;;;;10.10;1.50;;;14.40;99.90;;;;;;5032562;28;20100;-75
2022/09/16 08:08:58;;;;;;;12.82;1.88;;;14.50;99.90;;;;;;5032751;28;20025;-75
2022/09/16 08:11:26;;;;;;;6.90;1.23;;;14.60;99.90;;;;;;5032420;28;20018;-75
2022/09/16 08:13:52;;;;;;;10.38;1.20;;;14.70;99.90;;;;;;5032235;28;20386;-75
2022/09/16 08:16:20;;;;;;;9.88;1.40;;;14.70;99.90;;;;;;5032855;28;20105;-75
2022/09/16 08:18:48;;;;;;;9.55;1.52;;;14.70;99.90;;;;;;5032078;28;20030;-74
2022/09/16 08:21:17;;;;;;;10.30;1.33;;;14.50;99.90;;;;;;5032270;28;20025;-74
2022/09/16 08:23:43;;;;;;;8.93;1.23;;;14.40;99.90;;;;;;5032205;28;20022;-75
2022/09/16 08:26:11;;;;;;;13.07;1.55;;;14.30;99.90;;;;;;5032128;28;20531;-75
2022/09/16 08:28:37;;;;;;;5.30;0.90;;;14.20;99.90;;;;;;5032600;28;20045;-75
2022/09/16 08:31:04;;;;;;;6.85;1.08;;;14.10;99.90;;;;;;5032242;28;20030;-75
2022/09/16 08:33:34;;;;;;;6.95;1.15;;;14.00;99.90;;;;;;5032487;28;20101;-75
2022/09/16 08:36:03;;;;;;;9.30;1.00;;;14.00;99.90;;;;;;5014145;28;20370;-75
2022/09/16 08:38:29;;;;;;;7.45;1.02;;;14.00;99.90;;;;;;5031885;28;20041;-75
2022/09/16 08:41:03;;;;;;;7.63;0.98;;;14.00;99.90;;;;;;5030587;28;20025;-75
2022/09/16 08:43:35;;;;;;;12.77;1.23;;;14.10;99.90;;;;;;5032097;28;20075;-75
2022/09/16 08:46:41;;;;;;;7.40;1.00;;;14.20;99.90;;;;;;5032029;28;20086;-75
2022/09/16 08:49:19;;;;;;;;;;;14.30;99.90;;;;;;5029547;28;20048;-74
2022/09/16 08:51:45;;;;;;;7.35;1.17;;;14.40;99.90;;;;;;5029038;28;19963;-74
2022/09/16 08:54:36;;;;;;;5.18;0.95;;;14.40;99.90;;;;;;5029124;28;20103;-75
2022/09/16 08:57:04;;;;;;;5.45;0.90;;;14.30;99.90;;;;;;5029062;28;20065;-75
2022/09/16 08:59:34;;;;;;;4.57;0.80;;;14.20;99.90;;;;;;5028867;28;20471;-75
2022/09/16 09:02:36;;;;;;;4.40;0.70;;;14.10;99.90;;;;;;5029072;28;20021;-75
2022/09/16 09:05:13;;;;;;;4.75;0.75;;;14.00;99.90;;;;;;5028873;28;20025;-75
2022/09/16 09:08:10;;;;;;;6.40;0.88;;;14.00;99.90;;;;;;5012313;28;20029;-75
2022/09/16 09:10:50;;;;;;;5.18;0.95;;;14.10;99.90;;;;;;5028790;28;20029;-75
2022/09/16 09:13:18;;;;;;;5.90;0.93;;;14.10;99.90;;;;;;5028452;28;20128;-75
2022/09/16 09:16:08;;;;;;;7.03;0.80;;;14.20;99.90;;;;;;5029030;28;20549;-75
2022/09/16 09:19:14;;;;;;;8.40;1.38;;;14.30;99.90;;;;;;5028102;28;20635;-75
2022/09/16 09:22:12;;;;;;;10.70;1.10;;;14.30;99.90;;;;;;5017862;28;20113;-75
2022/09/16 09:24:47;;;;;;;9.82;1.33;;;14.40;99.90;;;;;;5028877;28;20041;-75
2022/09/16 09:27:14;;;;;;;7.97;1.00;;;14.30;99.90;;;;;;5031269;28;20083;-74
2022/09/16 09:30:08;;;;;;;6.20;1.00;;;14.20;99.90;;;;;;5030948;28;20064;-73
2022/09/16 09:33:00;;;;;;;5.72;1.10;;;14.10;99.90;;;;;;5038964;28;20025;-74
2022/09/16 09:35:46;;;;;;;5.47;0.73;;;14.00;99.90;;;;;;5061722;28;20128;-74
2022/09/16 09:38:27;;;;;;;5.78;0.88;;;13.90;99.90;;;;;;5044510;28;20033;-75
2022/09/16 09:40:57;;;;;;;7.45;0.80;;;13.90;99.90;;;;;;5037375;28;20033;-76
2022/09/16 09:43:35;;;;;;;5.00;0.90;;;13.80;99.90;;;;;;5029588;28;20025;-74
2022/09/16 09:46:13;;;;;;;5.90;1.02;;;13.80;99.90;;;;;;5030620;28;20024;-74
2022/09/16 09:48:55;;;;;;;5.80;1.00;;;13.80;99.90;;;;;;5032499;28;20568;-75
2022/09/16 09:51:38;;;;;;;6.93;0.95;;;13.90;99.90;;;;;;5030268;28;20053;-75
2022/09/16 09:54:32;;;;;;;5.55;0.98;;;14.10;99.90;;;;;;5030868;28;20036;-76
2022/09/16 09:57:11;;;;;;;7.40;1.20;;;14.30;99.90;;;;;;5038642;28;20053;-76
2022/09/16 09:59:51;;;;;;;9.25;1.20;;;14.60;99.90;;;;;;5031362;28;20398;-76
2022/09/16 10:02:20;;;;;;;6.45;1.10;;;14.90;99.90;;;;;;5031175;28;20071;-76
2022/09/16 10:04:46;;;;;;;7.35;1.30;;;15.00;99.90;;;;;;5031567;28;20059;-76
2022/09/16 10:07:15;;;;;;;9.27;1.05;;;15.20;99.90;;;;;;5028146;28;20029;-76
2022/09/16 10:09:59;;;;;;;9.43;1.38;;;15.30;99.90;;;;;;5030427;28;20057;-76
2022/09/16 10:12:30;;;;;;;7.07;1.10;;;15.50;99.90;;;;;;5030239;28;20079;-76
2022/09/16 10:14:56;;;;;;;6.18;0.90;;;15.60;99.90;;;;;;5030424;28;20093;-76
2022/09/16 10:17:22;;;;;;;7.55;1.25;;;15.50;99.90;;;;;;5030296;28;20112;-76
2022/09/16 10:19:58;;;;;;;4.35;0.77;;;15.50;99.90;;;;;;5038041;28;20426;-76
2022/09/16 10:22:31;;;;;;;7.47;1.08;;;15.30;99.90;;;;;;5035281;28;20102;-77
2022/09/16 10:25:19;;;;;;;8.45;0.80;;;15.00;99.90;;;;;;5029371;28;20021;-76
2022/09/16 10:27:58;;;;;;;5.90;0.90;;;14.90;99.90;;;;;;5030257;28;20045;-77
2022/09/16 10:30:46;;;;;;;7.65;0.90;;;14.80;99.90;;;;;;5030482;28;20067;-76
2022/09/16 10:33:35;;;;;;;5.40;1.02;;;14.80;99.90;;;;;;5029833;28;20047;-76
2022/09/16 10:36:03;;;;;;;6.47;0.90;;;14.80;99.90;;;;;;5030110;28;20035;-76
2022/09/16 10:38:40;;;;;;;5.85;1.00;;;14.80;99.90;;;;;;5030092;28;20185;-76
2022/09/16 10:41:31;;;;;;;11.70;1.58;;;14.80;99.90;;;;;;5030035;28;20025;-76
2022/09/16 10:44:31;;;;;;;6.25;1.10;;;14.90;99.90;;;;;;5030236;28;20056;-75
2022/09/16 10:47:00;;;;;;;8.13;0.98;;;15.10;99.90;;;;;;5030172;28;20381;-76
2022/09/16 10:49:56;;;;;;;8.18;0.85;;;15.20;99.90;;;;;;5030172;28;20021;-76
2022/09/16 10:52:24;;;;;;;;;;;15.40;99.90;;;;;;5030188;28;20133;-76
2022/09/16 10:54:50;;;;;;;6.80;0.73;;;15.50;99.90;;;;;;5028870;28;19913;-76
2022/09/16 10:57:31;;;;;;;2.80;0.88;;;15.70;99.90;;;;;;5029931;28;20053;-76
2022/09/16 10:59:58;;;;;;;5.38;0.70;;;16.00;99.90;;;;;;5028849;28;20072;-77
2022/09/16 11:02:32;;;;;;;4.78;0.93;;;16.10;99.90;;;;;;5030213;28;20381;-77
2022/09/16 11:05:08;;;;;;;5.18;0.82;;;16.20;99.90;;;;;;5030066;28;20029;-77
2022/09/16 11:07:43;;;;;;;4.43;1.00;;;16.30;99.90;;;;;;5029980;28;20059;-77
2022/09/16 11:11:04;;;;;;;4.65;0.73;;;16.50;99.90;;;;;;5030159;28;20045;-77
2022/09/16 11:13:38;;;;;;;5.55;0.80;;;16.60;99.90;;;;;;5029809;28;20030;-77
2022/09/16 11:16:27;;;;;;;3.38;0.70;;;16.70;99.90;;;;;;5028845;28;20033;-77
2022/09/16 11:19:01;;;;;;;7.93;1.08;;;16.80;99.90;;;;;;5029937;28;20087;-77
2022/09/16 11:21:30;;;;;;;3.88;0.93;;;16.90;99.90;;;;;;5029877;28;20025;-77
2022/09/16 11:24:20;;;;;;;5.35;1.13;;;16.90;99.90;;;;;;5029803;28;20393;-78
2022/09/16 11:27:07;;;;;;;10.05;1.98;;;17.00;99.90;;;;;;5019150;28;20052;-78
2022/09/16 11:30:01;;;;;;;9.38;1.40;;;17.10;99.90;;;;;;5029548;28;20029;-78
2022/09/16 11:32:30;;;;;;;4.82;1.00;;;17.00;99.90;;;;;;5029719;28;20064;-77
2022/09/16 11:35:08;;;;;;;8.18;1.10;;;16.80;99.90;;;;;;5029822;28;20026;-77
2022/09/16 11:37:56;;;;;;;16.98;1.50;;;16.50;99.90;;;;;;5032931;28;20029;-78
2022/09/16 11:40:32;;;;;;;9.65;1.63;;;16.40;99.90;;;;;;5033327;28;20053;-78
2022/09/16 11:43:37;;;;;;;9.45;1.40;;;16.40;99.90;;;;;;5033079;28;20026;-78
2022/09/16 11:46:11;;;;;;;12.43;1.50;;;16.50;99.90;;;;;;5032948;28;20026;-78
2022/09/16 11:49:01;;;;;;;12.57;1.75;;;16.60;99.90;;;;;;5020240;28;20026;-78
2022/09/16 11:51:29;;;;;;;9.48;1.52;;;16.60;99.90;;;;;;5032735;28;20104;-78
2022/09/16 11:54:18;;;;;;;10.40;1.58;;;16.50;99.90;;;;;;5032936;28;20478;-78
2022/09/16 11:56:52;;;;;;;14.77;1.73;;;16.40;99.90;;;;;;5033094;28;20029;-78
2022/09/16 11:59:40;;;;;;;7.88;1.30;;;16.40;99.90;;;;;;5033162;28;20029;-78
2022/09/16 12:02:27;;;;;;;8.52;1.38;;;16.30;99.90;;;;;;5032893;28;20541;-78
2022/09/16 12:05:01;;;;;;;8.00;1.20;;;16.20;99.90;;;;;;5032631;28;20419;-78
2022/09/16 12:08:03;;;;;;;10.90;1.48;;;16.10;99.90;;;;;;5033148;28;20022;-77
2022/09/16 12:10:37;;;;;;;7.70;1.02;;;16.10;99.90;;;;;;5029928;28;20580;-78
2022/09/16 12:13:14;;;;;;;5.57;1.23;;;16.10;99.90;;;;;;5029683;28;20622;-78
2022/09/16 12:15:53;;;;;;;6.57;0.93;;;16.20;99.90;;;;;;5029967;28;20112;-78
2022/09/16 12:18:19;;;;;;;5.65;1.10;;;16.30;99.90;;;;;;5029688;28;20510;-78
2022/09/16 12:20:50;;;;;;;6.95;1.10;;;16.50;99.90;;;;;;5029599;28;20068;-78
2022/09/16 12:23:24;;;;;;;4.40;0.80;;;16.60;99.90;;;;;;5029736;28;20117;-78
2022/09/16 12:26:08;;;;;;;3.13;0.80;;;16.60;99.90;;;;;;5029676;28;20474;-78
2022/09/16 12:28:55;;;;;;;5.40;0.75;;;16.50;99.90;;;;;;5029698;28;20022;-79
2022/09/16 12:31:33;;;;;;;9.60;1.13;;;16.40;99.90;;;;;;5029652;28;20025;-78
2022/09/16 12:34:08;;;;;;;3.97;0.98;;;16.30;99.90;;;;;;5026216;28;20520;-78
2022/09/16 12:36:38;;;;;;;8.00;1.23;;;16.20;99.90;;;;;;5029313;28;20545;-78
2022/09/16 12:39:03;;;;;;;7.45;1.10;;;16.00;99.90;;;;;;5029173;28;20493;-78
2022/09/16 12:41:58;;;;;;;12.25;1.60;;;15.90;99.90;;;;;;5030839;28;20029;-77
2022/09/16 12:45:02;;;;;;;8.97;1.73;;;15.60;99.90;;;;;;5033861;28;20096;-78
2022/09/16 12:47:59;;;;;;;6.28;1.10;;;15.30;99.90;;;;;;5031626;28;20280;-78
2022/09/16 12:50:55;;;;;;;6.63;1.10;;;15.10;99.90;;;;;;5044753;28;20041;-79
2022/09/16 12:53:40;;;;;;;5.45;1.10;;;15.00;99.90;;;;;;5046246;28;20429;-79
2022/09/16 12:56:18;;;;;;;8.85;1.15;;;14.90;99.90;;;;;;5049255;28;20052;-79
2022/09/16 12:58:55;;;;;;;5.95;0.93;;;14.80;99.90;;;;;;5041570;28;20120;-79
2022/09/16 13:02:00;;;;;;;7.93;1.20;;;14.60;99.90;;;;;;5045551;28;20017;-78
2022/09/16 13:04:38;;;;;;;6.55;1.30;;;14.50;99.90;;;;;;5007233;28;20058;-79
2022/09/16 13:07:05;;;;;;;8.48;1.17;;;14.30;99.90;;;;;;5007214;28;20467;-79
2022/09/16 13:09:35;;;;;;;6.35;1.38;;;14.20;99.90;;;;;;5007662;28;20030;-79
2022/09/16 13:12:18;;;;;;;12.65;1.30;;;14.20;99.90;;;;;;5008302;28;20497;-79
2022/09/16 13:14:54;;;;;;;9.48;1.52;;;14.10;99.90;;;;;;5008396;28;20077;-78
2022/09/16 13:17:28;;;;;;;;;;;14.10;99.90;;;;;;5008954;28;20034;-78